sensor_id;sensor_type;location;lat;lon;timestamp;temperature;humidity
9118;DHT22;4594;50.994;7.126;2023-08-31T00:00:45;15.00;58.00
9118;DHT22;4594;50.994;7.126;2023-08-31T00:03:12;15.00;58.10
9118;DHT22;4594;50.994;7.126;2023-08-31T00:05:41;15.10;58.20
9118;DHT22;4594;50.994;7.126;2023-08-31T00:08:08;15.00;58.20
9118;DHT22;4594;50.994;7.126;2023-08-31T00:10:35;15.00;58.30
9118;DHT22;4594;50.994;7.126;2023-08-31T00:13:03;15.10;58.40
9118;DHT22;4594;50.994;7.126;2023-08-31T00:15:31;15.10;58.40
9118;DHT22;4594;50.994;7.126;2023-08-31T00:17:59;15.20;58.60
9118;DHT22;4594;50.994;7.126;2023-08-31T00:20:25;15.20;58.60
9118;DHT22;4594;50.994;7.126;2023-08-31T00:22:52;15.20;58.60
9118;DHT22;4594;50.994;7.126;2023-08-31T00:25:18;15.20;58.60
9118;DHT22;4594;50.994;7.126;2023-08-31T00:27:43;15.30;58.70
9118;DHT22;4594;50.994;7.126;2023-08-31T00:30:12;15.30;58.40
9118;DHT22;4594;50.994;7.126;2023-08-31T00:32:39;15.30;58.20
9118;DHT22;4594;50.994;7.126;2023-08-31T00:35:11;15.30;58.10
9118;DHT22;4594;50.994;7.126;2023-08-31T00:37:36;15.30;58.10
9118;DHT22;4594;50.994;7.126;2023-08-31T00:40:02;15.30;57.90
9118;DHT22;4594;50.994;7.126;2023-08-31T00:42:32;15.30;57.90
9118;DHT22;4594;50.994;7.126;2023-08-31T00:44:58;15.30;58.00
9118;DHT22;4594;50.994;7.126;2023-08-31T00:47:24;15.30;57.60
9118;DHT22;4594;50.994;7.126;2023-08-31T00:49:50;15.30;57.50
9118;DHT22;4594;50.994;7.126;2023-08-31T00:52:17;15.20;57.40
9118;DHT22;4594;50.994;7.126;2023-08-31T00:54:46;15.30;57.50
9118;DHT22;4594;50.994;7.126;2023-08-31T00:57:12;15.20;57.30
9118;DHT22;4594;50.994;7.126;2023-08-31T00:59:38;15.20;57.30
9118;DHT22;4594;50.994;7.126;2023-08-31T01:02:14;15.10;57.30
9118;DHT22;4594;50.994;7.126;2023-08-31T01:05:06;15.10;57.10
9118;DHT22;4594;50.994;7.126;2023-08-31T01:08:03;15.10;56.90
9118;DHT22;4594;50.994;7.126;2023-08-31T01:10:53;15.10;56.80
9118;DHT22;4594;50.994;7.126;2023-08-31T01:13:27;15.00;57.10
9118;DHT22;4594;50.994;7.126;2023-08-31T01:15:59;15.00;57.10
9118;DHT22;4594;50.994;7.126;2023-08-31T01:18:29;15.00;57.10
9118;DHT22;4594;50.994;7.126;2023-08-31T01:21:08;15.00;57.30
9118;DHT22;4594;50.994;7.126;2023-08-31T01:23:52;15.00;57.30
9118;DHT22;4594;50.994;7.126;2023-08-31T01:26:20;14.90;57.10
9118;DHT22;4594;50.994;7.126;2023-08-31T01:28:50;15.00;57.80
9118;DHT22;4594;50.994;7.126;2023-08-31T01:31:17;15.00;57.80
9118;DHT22;4594;50.994;7.126;2023-08-31T01:33:43;14.90;58.00
9118;DHT22;4594;50.994;7.126;2023-08-31T01:36:24;15.00;58.50
9118;DHT22;4594;50.994;7.126;2023-08-31T01:39:08;15.00;58.00
9118;DHT22;4594;50.994;7.126;2023-08-31T01:41:41;15.00;57.70
9118;DHT22;4594;50.994;7.126;2023-08-31T01:44:13;15.00;57.80
9118;DHT22;4594;50.994;7.126;2023-08-31T01:46:45;14.90;57.50
9118;DHT22;4594;50.994;7.126;2023-08-31T01:49:13;14.90;57.40
9118;DHT22;4594;50.994;7.126;2023-08-31T01:51:39;15.00;57.40
9118;DHT22;4594;50.994;7.126;2023-08-31T01:54:05;14.80;57.20
9118;DHT22;4594;50.994;7.126;2023-08-31T01:56:31;14.80;57.20
9118;DHT22;4594;50.994;7.126;2023-08-31T01:58:56;14.80;57.10
9118;DHT22;4594;50.994;7.126;2023-08-31T02:01:22;14.80;57.10
9118;DHT22;4594;50.994;7.126;2023-08-31T02:03:48;14.70;56.90
9118;DHT22;4594;50.994;7.126;2023-08-31T02:06:13;14.70;56.90
9118;DHT22;4594;50.994;7.126;2023-08-31T02:08:39;14.70;56.90
9118;DHT22;4594;50.994;7.126;2023-08-31T02:11:05;14.60;56.80
9118;DHT22;4594;50.994;7.126;2023-08-31T02:13:30;14.60;56.80
9118;DHT22;4594;50.994;7.126;2023-08-31T02:15:56;14.50;56.80
9118;DHT22;4594;50.994;7.126;2023-08-31T02:18:22;14.50;56.80
9118;DHT22;4594;50.994;7.126;2023-08-31T02:20:47;14.50;56.90
9118;DHT22;4594;50.994;7.126;2023-08-31T02:23:13;14.50;56.90
9118;DHT22;4594;50.994;7.126;2023-08-31T02:25:40;14.50;56.80
9118;DHT22;4594;50.994;7.126;2023-08-31T02:28:06;14.40;56.60
9118;DHT22;4594;50.994;7.126;2023-08-31T02:30:31;14.40;56.60
9118;DHT22;4594;50.994;7.126;2023-08-31T02:32:57;14.30;56.50
9118;DHT22;4594;50.994;7.126;2023-08-31T02:35:23;14.30;56.60
9118;DHT22;4594;50.994;7.126;2023-08-31T02:37:48;14.30;56.60
9118;DHT22;4594;50.994;7.126;2023-08-31T02:40:14;14.20;56.60
9118;DHT22;4594;50.994;7.126;2023-08-31T02:42:41;14.20;56.60
9118;DHT22;4594;50.994;7.126;2023-08-31T02:45:07;14.20;56.60
9118;DHT22;4594;50.994;7.126;2023-08-31T02:47:33;14.10;56.60
9118;DHT22;4594;50.994;7.126;2023-08-31T02:49:58;14.10;56.60
9118;DHT22;4594;50.994;7.126;2023-08-31T02:52:25;14.10;56.80
9118;DHT22;4594;50.994;7.126;2023-08-31T02:54:51;14.20;57.30
9118;DHT22;4594;50.994;7.126;2023-08-31T02:57:17;14.10;57.60
9118;DHT22;4594;50.994;7.126;2023-08-31T02:59:45;14.00;57.80
9118;DHT22;4594;50.994;7.126;2023-08-31T03:02:12;14.00;58.00
9118;DHT22;4594;50.994;7.126;2023-08-31T03:04:38;14.00;58.10
9118;DHT22;4594;50.994;7.126;2023-08-31T03:07:05;14.10;58.30
9118;DHT22;4594;50.994;7.126;2023-08-31T03:09:30;14.10;58.50
9118;DHT22;4594;50.994;7.126;2023-08-31T03:11:56;14.10;58.60
9118;DHT22;4594;50.994;7.126;2023-08-31T03:14:22;14.20;58.70
9118;DHT22;4594;50.994;7.126;2023-08-31T03:16:48;14.20;59.00
9118;DHT22;4594;50.994;7.126;2023-08-31T03:19:14;14.30;58.90
9118;DHT22;4594;50.994;7.126;2023-08-31T03:21:40;14.30;58.90
9118;DHT22;4594;50.994;7.126;2023-08-31T03:24:05;14.30;58.80
9118;DHT22;4594;50.994;7.126;2023-08-31T03:26:31;14.30;58.60
9118;DHT22;4594;50.994;7.126;2023-08-31T03:28:57;14.30;58.50
9118;DHT22;4594;50.994;7.126;2023-08-31T03:31:23;14.40;58.60
9118;DHT22;4594;50.994;7.126;2023-08-31T03:33:50;14.40;58.60
9118;DHT22;4594;50.994;7.126;2023-08-31T03:36:16;14.40;58.60
9118;DHT22;4594;50.994;7.126;2023-08-31T03:38:41;14.40;58.60
9118;DHT22;4594;50.994;7.126;2023-08-31T03:41:07;14.40;58.60
9118;DHT22;4594;50.994;7.126;2023-08-31T03:43:33;14.40;58.70
9118;DHT22;4594;50.994;7.126;2023-08-31T03:46:00;14.40;58.80
9118;DHT22;4594;50.994;7.126;2023-08-31T03:48:26;14.50;59.00
9118;DHT22;4594;50.994;7.126;2023-08-31T03:50:52;14.50;59.20
9118;DHT22;4594;50.994;7.126;2023-08-31T03:53:19;14.50;59.30
9118;DHT22;4594;50.994;7.126;2023-08-31T03:55:45;14.60;59.50
9118;DHT22;4594;50.994;7.126;2023-08-31T03:58:10;14.70;59.70
9118;DHT22;4594;50.994;7.126;2023-08-31T04:00:37;14.80;59.80
9118;DHT22;4594;50.994;7.126;2023-08-31T04:03:03;14.70;59.70
9118;DHT22;4594;50.994;7.126;2023-08-31T04:05:33;14.70;59.60
9118;DHT22;4594;50.994;7.126;2023-08-31T04:07:59;14.80;59.40
9118;DHT22;4594;50.994;7.126;2023-08-31T04:10:25;14.80;59.70
9118;DHT22;4594;50.994;7.126;2023-08-31T04:12:52;15.00;59.80
9118;DHT22;4594;50.994;7.126;2023-08-31T04:15:17;14.90;59.70
9118;DHT22;4594;50.994;7.126;2023-08-31T04:17:44;14.90;59.50
9118;DHT22;4594;50.994;7.126;2023-08-31T04:20:10;15.10;59.60
9118;DHT22;4594;50.994;7.126;2023-08-31T04:22:36;15.00;59.40
9118;DHT22;4594;50.994;7.126;2023-08-31T04:25:02;15.00;59.30
9118;DHT22;4594;50.994;7.126;2023-08-31T04:27:29;15.00;59.20
9118;DHT22;4594;50.994;7.126;2023-08-31T04:30:02;15.10;59.20
9118;DHT22;4594;50.994;7.126;2023-08-31T04:32:28;15.10;59.10
9118;DHT22;4594;50.994;7.126;2023-08-31T04:34:54;15.20;59.00
9118;DHT22;4594;50.994;7.126;2023-08-31T04:37:21;15.10;58.90
9118;DHT22;4594;50.994;7.126;2023-08-31T04:39:47;15.20;58.90
9118;DHT22;4594;50.994;7.126;2023-08-31T04:42:13;15.20;59.00
9118;DHT22;4594;50.994;7.126;2023-08-31T04:44:39;15.20;58.90
9118;DHT22;4594;50.994;7.126;2023-08-31T04:47:06;15.40;59.10
9118;DHT22;4594;50.994;7.126;2023-08-31T04:49:31;15.30;59.00
9118;DHT22;4594;50.994;7.126;2023-08-31T04:51:57;15.30;59.10
9118;DHT22;4594;50.994;7.126;2023-08-31T04:54:23;15.30;59.10
9118;DHT22;4594;50.994;7.126;2023-08-31T04:56:48;15.40;59.20
9118;DHT22;4594;50.994;7.126;2023-08-31T04:59:14;15.40;59.20
9118;DHT22;4594;50.994;7.126;2023-08-31T05:01:40;15.40;59.20
9118;DHT22;4594;50.994;7.126;2023-08-31T05:04:06;15.50;59.20
9118;DHT22;4594;50.994;7.126;2023-08-31T05:06:32;15.50;59.10
9118;DHT22;4594;50.994;7.126;2023-08-31T05:08:58;15.50;59.10
9118;DHT22;4594;50.994;7.126;2023-08-31T05:11:24;15.60;59.10
9118;DHT22;4594;50.994;7.126;2023-08-31T05:13:50;15.60;59.10
9118;DHT22;4594;50.994;7.126;2023-08-31T05:16:15;15.70;59.10
9118;DHT22;4594;50.994;7.126;2023-08-31T05:18:41;15.70;59.10
9118;DHT22;4594;50.994;7.126;2023-08-31T05:21:07;15.70;59.10
9118;DHT22;4594;50.994;7.126;2023-08-31T05:23:33;15.80;59.10
9118;DHT22;4594;50.994;7.126;2023-08-31T05:25:59;15.90;59.30
9118;DHT22;4594;50.994;7.126;2023-08-31T05:28:26;16.00;59.20
9118;DHT22;4594;50.994;7.126;2023-08-31T05:30:55;15.90;58.90
9118;DHT22;4594;50.994;7.126;2023-08-31T05:33:22;15.90;58.90
9118;DHT22;4594;50.994;7.126;2023-08-31T05:35:50;15.90;58.80
9118;DHT22;4594;50.994;7.126;2023-08-31T05:38:17;16.00;58.70
9118;DHT22;4594;50.994;7.126;2023-08-31T05:40:43;16.00;58.70
9118;DHT22;4594;50.994;7.126;2023-08-31T05:43:12;16.00;58.60
9118;DHT22;4594;50.994;7.126;2023-08-31T05:45:38;16.10;58.70
9118;DHT22;4594;50.994;7.126;2023-08-31T05:48:04;16.20;58.80
9118;DHT22;4594;50.994;7.126;2023-08-31T05:50:30;16.10;58.60
9118;DHT22;4594;50.994;7.126;2023-08-31T05:52:56;16.10;58.50
9118;DHT22;4594;50.994;7.126;2023-08-31T05:55:22;16.10;58.40
9118;DHT22;4594;50.994;7.126;2023-08-31T05:57:48;16.20;58.40
9118;DHT22;4594;50.994;7.126;2023-08-31T06:00:14;16.20;58.30
9118;DHT22;4594;50.994;7.126;2023-08-31T06:02:41;16.20;58.10
9118;DHT22;4594;50.994;7.126;2023-08-31T06:05:10;16.20;58.00
9118;DHT22;4594;50.994;7.126;2023-08-31T06:07:42;16.20;57.80
9118;DHT22;4594;50.994;7.126;2023-08-31T06:10:08;16.30;58.00
9118;DHT22;4594;50.994;7.126;2023-08-31T06:12:35;16.30;57.90
9118;DHT22;4594;50.994;7.126;2023-08-31T06:15:00;16.30;57.80
9118;DHT22;4594;50.994;7.126;2023-08-31T06:17:26;16.30;57.80
9118;DHT22;4594;50.994;7.126;2023-08-31T06:19:52;16.40;57.80
9118;DHT22;4594;50.994;7.126;2023-08-31T06:22:18;16.40;57.70
9118;DHT22;4594;50.994;7.126;2023-08-31T06:24:43;16.40;57.50
9118;DHT22;4594;50.994;7.126;2023-08-31T06:27:11;16.50;57.50
9118;DHT22;4594;50.994;7.126;2023-08-31T06:29:38;16.50;57.80
9118;DHT22;4594;50.994;7.126;2023-08-31T06:32:04;16.60;57.70
9118;DHT22;4594;50.994;7.126;2023-08-31T06:34:30;16.60;57.70
9118;DHT22;4594;50.994;7.126;2023-08-31T06:36:56;16.60;57.70
9118;DHT22;4594;50.994;7.126;2023-08-31T06:39:23;16.80;58.30
9118;DHT22;4594;50.994;7.126;2023-08-31T06:41:50;16.90;59.20
9118;DHT22;4594;50.994;7.126;2023-08-31T06:44:15;17.10;59.80
9118;DHT22;4594;50.994;7.126;2023-08-31T06:46:42;17.20;59.80
9118;DHT22;4594;50.994;7.126;2023-08-31T06:49:08;17.50;60.50
9118;DHT22;4594;50.994;7.126;2023-08-31T06:51:34;17.80;61.40
9118;DHT22;4594;50.994;7.126;2023-08-31T06:54:00;18.10;62.30
9118;DHT22;4594;50.994;7.126;2023-08-31T06:56:35;18.40;62.40
9118;DHT22;4594;50.994;7.126;2023-08-31T06:59:02;18.70;61.10
9118;DHT22;4594;50.994;7.126;2023-08-31T07:01:31;19.10;61.50
9118;DHT22;4594;50.994;7.126;2023-08-31T07:03:58;19.50;61.90
9118;DHT22;4594;50.994;7.126;2023-08-31T07:06:24;19.90;61.10
9118;DHT22;4594;50.994;7.126;2023-08-31T07:08:50;20.20;61.80
9118;DHT22;4594;50.994;7.126;2023-08-31T07:11:16;20.60;62.60
9118;DHT22;4594;50.994;7.126;2023-08-31T07:13:42;21.10;63.40
9118;DHT22;4594;50.994;7.126;2023-08-31T07:16:08;21.50;62.00
9118;DHT22;4594;50.994;7.126;2023-08-31T07:18:35;21.90;60.70
9118;DHT22;4594;50.994;7.126;2023-08-31T07:21:02;22.40;60.50
9118;DHT22;4594;50.994;7.126;2023-08-31T07:23:30;22.80;60.30
9118;DHT22;4594;50.994;7.126;2023-08-31T07:26:00;23.20;59.10
9118;DHT22;4594;50.994;7.126;2023-08-31T07:28:26;23.60;57.00
9118;DHT22;4594;50.994;7.126;2023-08-31T07:31:05;24.00;58.40
9118;DHT22;4594;50.994;7.126;2023-08-31T07:33:33;24.40;55.30
9118;DHT22;4594;50.994;7.126;2023-08-31T07:36:03;24.80;58.50
9118;DHT22;4594;50.994;7.126;2023-08-31T07:38:31;25.20;56.40
9118;DHT22;4594;50.994;7.126;2023-08-31T07:40:57;25.50;54.40
9118;DHT22;4594;50.994;7.126;2023-08-31T07:43:24;25.60;53.10
9118;DHT22;4594;50.994;7.126;2023-08-31T07:45:50;25.80;52.00
9118;DHT22;4594;50.994;7.126;2023-08-31T07:48:16;25.80;51.50
9118;DHT22;4594;50.994;7.126;2023-08-31T07:50:42;25.90;50.70
9118;DHT22;4594;50.994;7.126;2023-08-31T07:53:08;25.90;49.90
9118;DHT22;4594;50.994;7.126;2023-08-31T07:55:34;25.90;49.60
9118;DHT22;4594;50.994;7.126;2023-08-31T07:58:01;25.90;49.80
9118;DHT22;4594;50.994;7.126;2023-08-31T08:00:27;26.00;49.60
9118;DHT22;4594;50.994;7.126;2023-08-31T08:02:52;26.00;49.00
9118;DHT22;4594;50.994;7.126;2023-08-31T08:05:18;26.00;48.70
9118;DHT22;4594;50.994;7.126;2023-08-31T08:07:44;26.00;48.10
9118;DHT22;4594;50.994;7.126;2023-08-31T08:10:11;26.10;48.40
9118;DHT22;4594;50.994;7.126;2023-08-31T08:12:40;26.10;48.60
9118;DHT22;4594;50.994;7.126;2023-08-31T08:15:11;26.40;48.10
9118;DHT22;4594;50.994;7.126;2023-08-31T08:17:38;26.60;49.70
9118;DHT22;4594;50.994;7.126;2023-08-31T08:20:06;27.00;50.20
9118;DHT22;4594;50.994;7.126;2023-08-31T08:22:32;27.50;50.80
9118;DHT22;4594;50.994;7.126;2023-08-31T08:24:58;28.00;51.00
9118;DHT22;4594;50.994;7.126;2023-08-31T08:27:24;28.50;50.90
9118;DHT22;4594;50.994;7.126;2023-08-31T08:29:50;29.00;50.60
9118;DHT22;4594;50.994;7.126;2023-08-31T08:32:15;29.60;49.90
9118;DHT22;4594;50.994;7.126;2023-08-31T08:34:41;30.10;49.80
9118;DHT22;4594;50.994;7.126;2023-08-31T08:37:07;30.60;48.70
9118;DHT22;4594;50.994;7.126;2023-08-31T08:39:32;31.00;48.40
9118;DHT22;4594;50.994;7.126;2023-08-31T08:41:58;31.40;48.00
9118;DHT22;4594;50.994;7.126;2023-08-31T08:44:31;31.70;47.40
9118;DHT22;4594;50.994;7.126;2023-08-31T08:47:00;32.00;45.50
9118;DHT22;4594;50.994;7.126;2023-08-31T08:49:26;32.30;46.50
9118;DHT22;4594;50.994;7.126;2023-08-31T08:51:53;32.60;45.90
9118;DHT22;4594;50.994;7.126;2023-08-31T08:54:20;32.90;45.60
9118;DHT22;4594;50.994;7.126;2023-08-31T08:56:47;33.10;44.90
9118;DHT22;4594;50.994;7.126;2023-08-31T08:59:14;33.30;44.50
9118;DHT22;4594;50.994;7.126;2023-08-31T09:01:40;33.50;44.10
9118;DHT22;4594;50.994;7.126;2023-08-31T09:04:06;33.70;44.20
9118;DHT22;4594;50.994;7.126;2023-08-31T09:06:32;33.90;43.90
9118;DHT22;4594;50.994;7.126;2023-08-31T09:08:58;34.20;43.90
9118;DHT22;4594;50.994;7.126;2023-08-31T09:11:25;34.40;43.50
9118;DHT22;4594;50.994;7.126;2023-08-31T09:13:53;34.70;43.30
9118;DHT22;4594;50.994;7.126;2023-08-31T09:16:29;34.90;42.80
9118;DHT22;4594;50.994;7.126;2023-08-31T09:18:58;35.20;42.00
9118;DHT22;4594;50.994;7.126;2023-08-31T09:21:37;35.40;42.30
9118;DHT22;4594;50.994;7.126;2023-08-31T09:24:06;35.60;41.00
9118;DHT22;4594;50.994;7.126;2023-08-31T09:26:39;35.80;42.10
9118;DHT22;4594;50.994;7.126;2023-08-31T09:29:08;35.90;41.60
9118;DHT22;4594;50.994;7.126;2023-08-31T09:31:34;35.90;40.80
9118;DHT22;4594;50.994;7.126;2023-08-31T09:34:01;35.90;40.70
9118;DHT22;4594;50.994;7.126;2023-08-31T09:36:28;35.90;40.30
9118;DHT22;4594;50.994;7.126;2023-08-31T09:38:57;35.80;40.00
9118;DHT22;4594;50.994;7.126;2023-08-31T09:41:23;35.60;39.00
9118;DHT22;4594;50.994;7.126;2023-08-31T09:43:49;35.40;39.10
9118;DHT22;4594;50.994;7.126;2023-08-31T09:46:16;35.10;38.90
9118;DHT22;4594;50.994;7.126;2023-08-31T09:48:43;34.90;38.60
9118;DHT22;4594;50.994;7.126;2023-08-31T09:51:13;34.50;38.20
9118;DHT22;4594;50.994;7.126;2023-08-31T09:53:42;34.10;37.40
9118;DHT22;4594;50.994;7.126;2023-08-31T09:56:18;33.70;37.50
9118;DHT22;4594;50.994;7.126;2023-08-31T09:58:47;33.30;37.40
9118;DHT22;4594;50.994;7.126;2023-08-31T10:01:13;33.10;38.10
9118;DHT22;4594;50.994;7.126;2023-08-31T10:03:39;33.00;38.10
9118;DHT22;4594;50.994;7.126;2023-08-31T10:06:06;32.80;37.80
9118;DHT22;4594;50.994;7.126;2023-08-31T10:08:33;32.60;37.60
9118;DHT22;4594;50.994;7.126;2023-08-31T10:11:01;32.30;37.30
9118;DHT22;4594;50.994;7.126;2023-08-31T10:13:31;32.10;37.10
9118;DHT22;4594;50.994;7.126;2023-08-31T10:16:00;31.90;37.20
9118;DHT22;4594;50.994;7.126;2023-08-31T10:18:30;31.70;37.10
9118;DHT22;4594;50.994;7.126;2023-08-31T10:20:59;31.40;36.60
9118;DHT22;4594;50.994;7.126;2023-08-31T10:23:28;31.10;36.40
9118;DHT22;4594;50.994;7.126;2023-08-31T10:28:24;30.40;36.40
9118;DHT22;4594;50.994;7.126;2023-08-31T10:31:10;29.90;36.10
9118;DHT22;4594;50.994;7.126;2023-08-31T10:36:17;29.10;36.10
9118;DHT22;4594;50.994;7.126;2023-08-31T10:38:46;28.70;35.70
9118;DHT22;4594;50.994;7.126;2023-08-31T10:41:22;28.40;36.20
9118;DHT22;4594;50.994;7.126;2023-08-31T10:51:34;27.50;36.90
9118;DHT22;4594;50.994;7.126;2023-08-31T10:59:26;28.10;38.10
9118;DHT22;4594;50.994;7.126;2023-08-31T11:02:07;28.40;38.60
9118;DHT22;4594;50.994;7.126;2023-08-31T11:04:59;28.70;38.50
9118;DHT22;4594;50.994;7.126;2023-08-31T11:07:27;29.10;37.50
9118;DHT22;4594;50.994;7.126;2023-08-31T11:12:44;29.30;36.40
9118;DHT22;4594;50.994;7.126;2023-08-31T11:15:17;29.20;36.80
9118;DHT22;4594;50.994;7.126;2023-08-31T11:17:44;29.10;36.40
9118;DHT22;4594;50.994;7.126;2023-08-31T11:20:18;29.00;36.50
9118;DHT22;4594;50.994;7.126;2023-08-31T11:22:47;29.00;36.30
9118;DHT22;4594;50.994;7.126;2023-08-31T11:25:16;28.90;36.60
9118;DHT22;4594;50.994;7.126;2023-08-31T11:27:52;28.90;36.70
9118;DHT22;4594;50.994;7.126;2023-08-31T11:30:29;28.90;36.90
9118;DHT22;4594;50.994;7.126;2023-08-31T11:33:03;28.90;36.70
9118;DHT22;4594;50.994;7.126;2023-08-31T11:35:35;29.00;36.40
9118;DHT22;4594;50.994;7.126;2023-08-31T11:38:03;29.10;36.90
9118;DHT22;4594;50.994;7.126;2023-08-31T11:40:29;29.20;36.80
9118;DHT22;4594;50.994;7.126;2023-08-31T11:42:57;29.20;36.50
9118;DHT22;4594;50.994;7.126;2023-08-31T11:45:23;29.20;36.30
9118;DHT22;4594;50.994;7.126;2023-08-31T11:47:51;29.20;36.20
9118;DHT22;4594;50.994;7.126;2023-08-31T11:50:18;29.20;36.00
9118;DHT22;4594;50.994;7.126;2023-08-31T11:52:44;29.00;35.80
9118;DHT22;4594;50.994;7.126;2023-08-31T11:55:11;28.90;35.80
9118;DHT22;4594;50.994;7.126;2023-08-31T11:57:38;28.80;35.70
9118;DHT22;4594;50.994;7.126;2023-08-31T12:00:04;28.60;35.60
9118;DHT22;4594;50.994;7.126;2023-08-31T12:02:37;28.50;35.50
9118;DHT22;4594;50.994;7.126;2023-08-31T12:05:03;28.30;35.10
9118;DHT22;4594;50.994;7.126;2023-08-31T12:07:30;28.20;35.20
9118;DHT22;4594;50.994;7.126;2023-08-31T12:10:03;28.00;35.20
9118;DHT22;4594;50.994;7.126;2023-08-31T12:12:29;27.70;34.70
9118;DHT22;4594;50.994;7.126;2023-08-31T12:14:58;27.50;35.00
9118;DHT22;4594;50.994;7.126;2023-08-31T12:17:29;27.30;35.10
9118;DHT22;4594;50.994;7.126;2023-08-31T12:20:05;27.20;35.20
9118;DHT22;4594;50.994;7.126;2023-08-31T12:22:32;27.00;34.90
9118;DHT22;4594;50.994;7.126;2023-08-31T12:24:57;26.80;35.00
9118;DHT22;4594;50.994;7.126;2023-08-31T12:27:23;26.70;35.00
9118;DHT22;4594;50.994;7.126;2023-08-31T12:29:49;26.50;35.10
9118;DHT22;4594;50.994;7.126;2023-08-31T12:32:16;26.40;35.00
9118;DHT22;4594;50.994;7.126;2023-08-31T12:34:44;26.30;35.20
9118;DHT22;4594;50.994;7.126;2023-08-31T12:37:10;26.10;35.20
9118;DHT22;4594;50.994;7.126;2023-08-31T12:39:36;26.00;35.00
9118;DHT22;4594;50.994;7.126;2023-08-31T12:42:03;25.90;35.00
9118;DHT22;4594;50.994;7.126;2023-08-31T12:44:29;25.80;35.00
9118;DHT22;4594;50.994;7.126;2023-08-31T12:46:55;25.70;35.00
9118;DHT22;4594;50.994;7.126;2023-08-31T12:49:21;25.50;35.00
9118;DHT22;4594;50.994;7.126;2023-08-31T12:51:48;25.40;35.00
9118;DHT22;4594;50.994;7.126;2023-08-31T12:54:15;25.30;35.10
9118;DHT22;4594;50.994;7.126;2023-08-31T12:56:41;25.20;35.20
9118;DHT22;4594;50.994;7.126;2023-08-31T12:59:07;25.10;35.30
9118;DHT22;4594;50.994;7.126;2023-08-31T13:01:33;25.00;35.40
9118;DHT22;4594;50.994;7.126;2023-08-31T13:03:59;24.90;35.60
9118;DHT22;4594;50.994;7.126;2023-08-31T13:06:25;24.80;35.50
9118;DHT22;4594;50.994;7.126;2023-08-31T13:08:51;24.70;35.40
9118;DHT22;4594;50.994;7.126;2023-08-31T13:11:17;24.60;35.30
9118;DHT22;4594;50.994;7.126;2023-08-31T13:13:48;24.50;35.20
9118;DHT22;4594;50.994;7.126;2023-08-31T13:16:16;24.40;35.10
9118;DHT22;4594;50.994;7.126;2023-08-31T13:18:42;24.30;35.20
9118;DHT22;4594;50.994;7.126;2023-08-31T13:21:07;24.30;35.20
9118;DHT22;4594;50.994;7.126;2023-08-31T13:23:33;24.20;35.30
9118;DHT22;4594;50.994;7.126;2023-08-31T13:25:59;24.20;35.40
9118;DHT22;4594;50.994;7.126;2023-08-31T13:28:24;24.20;35.50
9118;DHT22;4594;50.994;7.126;2023-08-31T13:30:55;24.20;35.60
9118;DHT22;4594;50.994;7.126;2023-08-31T13:33:23;24.30;35.60
9118;DHT22;4594;50.994;7.126;2023-08-31T13:35:49;24.30;35.70
9118;DHT22;4594;50.994;7.126;2023-08-31T13:38:14;24.30;35.60
9118;DHT22;4594;50.994;7.126;2023-08-31T13:40:40;24.30;35.50
9118;DHT22;4594;50.994;7.126;2023-08-31T13:43:06;24.30;35.40
9118;DHT22;4594;50.994;7.126;2023-08-31T13:45:32;24.30;35.50
9118;DHT22;4594;50.994;7.126;2023-08-31T13:48:01;24.30;35.70
9118;DHT22;4594;50.994;7.126;2023-08-31T13:50:27;24.20;35.70
9118;DHT22;4594;50.994;7.126;2023-08-31T13:52:53;24.20;35.90
9118;DHT22;4594;50.994;7.126;2023-08-31T13:55:19;24.20;36.00
9118;DHT22;4594;50.994;7.126;2023-08-31T13:57:45;24.20;36.00
9118;DHT22;4594;50.994;7.126;2023-08-31T14:00:11;24.20;36.00
9118;DHT22;4594;50.994;7.126;2023-08-31T14:02:38;24.30;36.10
9118;DHT22;4594;50.994;7.126;2023-08-31T14:05:07;24.30;36.20
9118;DHT22;4594;50.994;7.126;2023-08-31T14:07:34;24.30;36.10
9118;DHT22;4594;50.994;7.126;2023-08-31T14:10:00;24.40;36.10
9118;DHT22;4594;50.994;7.126;2023-08-31T14:12:30;24.50;36.10
9118;DHT22;4594;50.994;7.126;2023-08-31T14:14:57;24.50;35.90
9118;DHT22;4594;50.994;7.126;2023-08-31T14:17:23;24.50;35.90
9118;DHT22;4594;50.994;7.126;2023-08-31T14:19:49;24.50;36.00
9118;DHT22;4594;50.994;7.126;2023-08-31T14:22:15;24.50;36.00
9118;DHT22;4594;50.994;7.126;2023-08-31T14:24:41;24.40;36.00
9118;DHT22;4594;50.994;7.126;2023-08-31T14:27:06;24.40;36.00
9118;DHT22;4594;50.994;7.126;2023-08-31T14:29:32;24.40;35.90
9118;DHT22;4594;50.994;7.126;2023-08-31T14:31:58;24.40;35.90
9118;DHT22;4594;50.994;7.126;2023-08-31T14:34:24;24.40;35.90
9118;DHT22;4594;50.994;7.126;2023-08-31T14:36:50;24.40;35.80
9118;DHT22;4594;50.994;7.126;2023-08-31T14:39:16;24.40;35.70
9118;DHT22;4594;50.994;7.126;2023-08-31T14:41:43;24.40;35.60
9118;DHT22;4594;50.994;7.126;2023-08-31T14:44:09;24.40;35.70
9118;DHT22;4594;50.994;7.126;2023-08-31T14:46:34;24.30;35.50
9118;DHT22;4594;50.994;7.126;2023-08-31T14:49:00;24.30;35.50
9118;DHT22;4594;50.994;7.126;2023-08-31T14:51:26;24.30;35.40
9118;DHT22;4594;50.994;7.126;2023-08-31T14:53:51;24.20;35.30
9118;DHT22;4594;50.994;7.126;2023-08-31T14:56:17;24.20;35.30
9118;DHT22;4594;50.994;7.126;2023-08-31T14:58:42;24.10;35.20
9118;DHT22;4594;50.994;7.126;2023-08-31T15:01:08;24.10;35.20
9118;DHT22;4594;50.994;7.126;2023-08-31T15:03:34;24.00;35.20
9118;DHT22;4594;50.994;7.126;2023-08-31T15:05:59;24.00;35.20
9118;DHT22;4594;50.994;7.126;2023-08-31T15:08:36;23.90;35.10
9118;DHT22;4594;50.994;7.126;2023-08-31T15:11:03;23.90;35.00
9118;DHT22;4594;50.994;7.126;2023-08-31T15:13:29;23.90;35.30
9118;DHT22;4594;50.994;7.126;2023-08-31T15:15:54;23.80;35.30
9118;DHT22;4594;50.994;7.126;2023-08-31T15:18:20;23.80;35.50
9118;DHT22;4594;50.994;7.126;2023-08-31T15:20:47;23.80;35.50
9118;DHT22;4594;50.994;7.126;2023-08-31T15:23:13;23.90;35.50
9118;DHT22;4594;50.994;7.126;2023-08-31T15:25:38;23.80;35.40
9118;DHT22;4594;50.994;7.126;2023-08-31T15:28:04;23.90;35.40
9118;DHT22;4594;50.994;7.126;2023-08-31T15:30:30;23.90;35.40
9118;DHT22;4594;50.994;7.126;2023-08-31T15:33:04;23.90;35.30
9118;DHT22;4594;50.994;7.126;2023-08-31T15:35:31;23.90;35.10
9118;DHT22;4594;50.994;7.126;2023-08-31T15:37:58;23.80;35.10
9118;DHT22;4594;50.994;7.126;2023-08-31T15:40:25;23.80;35.10
9118;DHT22;4594;50.994;7.126;2023-08-31T15:42:51;23.70;35.00
9118;DHT22;4594;50.994;7.126;2023-08-31T15:45:17;23.70;35.00
9118;DHT22;4594;50.994;7.126;2023-08-31T15:47:42;23.70;35.00
9118;DHT22;4594;50.994;7.126;2023-08-31T15:50:08;23.50;34.90
9118;DHT22;4594;50.994;7.126;2023-08-31T15:52:34;23.60;34.80
9118;DHT22;4594;50.994;7.126;2023-08-31T15:55:03;23.50;34.80
9118;DHT22;4594;50.994;7.126;2023-08-31T15:57:30;23.40;34.60
9118;DHT22;4594;50.994;7.126;2023-08-31T15:59:59;23.40;34.60
9118;DHT22;4594;50.994;7.126;2023-08-31T16:02:25;23.30;34.60
9118;DHT22;4594;50.994;7.126;2023-08-31T16:04:53;23.20;34.60
9118;DHT22;4594;50.994;7.126;2023-08-31T16:07:19;23.10;34.80
9118;DHT22;4594;50.994;7.126;2023-08-31T16:09:45;23.10;34.70
9118;DHT22;4594;50.994;7.126;2023-08-31T16:12:12;23.00;34.60
9118;DHT22;4594;50.994;7.126;2023-08-31T16:14:38;22.90;34.70
9118;DHT22;4594;50.994;7.126;2023-08-31T16:17:03;22.90;34.70
9118;DHT22;4594;50.994;7.126;2023-08-31T16:19:29;22.90;34.70
9118;DHT22;4594;50.994;7.126;2023-08-31T16:21:55;22.90;34.80
9118;DHT22;4594;50.994;7.126;2023-08-31T16:24:20;22.90;34.80